Time;durP1;ratioP1;P1;durP2;ratioP2;P2;SDS_P1;SDS_P2;PMS_P1;PMS_P2;Temp;Humidity;BMP_temperature;BMP_pressure;BME280_temperature;BME280_humidity;BME280_pressure;Samples;Min_cycle;Max_cycle;Signal;HPM_P1;HPM_P2
2022/05/27 00:01:48;;;;;;;;;;;22.10;44.00;;;;;;5143819;27;20010;-45
2022/05/27 00:04:14;;;;;;;;;;;22.20;43.80;;;;;;5148507;27;20342;-49
2022/05/27 00:06:40;;;;;;;;;;;21.90;43.80;;;;;;5142363;27;19971;-47
2022/05/27 00:09:05;;;;;;;;;;;21.30;43.40;;;;;;5141924;27;19934;-49
2022/05/27 00:11:31;;;;;;;;;;;21.30;42.70;;;;;;5146098;27;20252;-49
2022/05/27 00:13:57;;;;;;;;;;;21.70;44.40;;;;;;5141868;27;19923;-47
2022/05/27 00:16:23;;;;;;;;;;;22.00;44.30;;;;;;5146769;27;19973;-55
2022/05/27 00:18:49;;;;;;;;;;;22.00;44.30;;;;;;5143806;27;20007;-51
2022/05/27 00:21:15;;;;;;;;;;;22.00;44.40;;;;;;5142950;27;19923;-46
2022/05/27 00:23:41;;;;;;;;;;;22.00;44.60;;;;;;5129706;27;20386;-46
2022/05/27 00:26:06;;;;;;;;;;;22.10;44.60;;;;;;5142310;27;19923;-47
2022/05/27 00:28:32;;;;;;;;;;;22.10;44.40;;;;;;5140604;27;19974;-51
2022/05/27 00:30:58;;;;;;;;;;;22.10;44.30;;;;;;5146647;27;19927;-47
2022/05/27 00:33:24;;;;;;;;;;;22.10;44.20;;;;;;5141750;27;19931;-46
2022/05/27 00:35:50;;;;;;;;;;;22.20;44.10;;;;;;5144840;27;20389;-52
2022/05/27 00:38:15;;;;;;;;;;;22.20;43.80;;;;;;5145846;27;20393;-46
2022/05/27 00:40:42;;;;;;;;;;;22.20;43.80;;;;;;5142295;27;20294;-46
2022/05/27 00:43:08;;;;;;;;;;;22.20;43.80;;;;;;5147427;27;19923;-46
2022/05/27 00:45:34;;;;;;;;;;;22.20;43.90;;;;;;5141656;27;20393;-46
2022/05/27 00:48:01;;;;;;;;;;;22.10;44.20;;;;;;5139835;27;19923;-44
2022/05/27 00:50:28;;;;;;;;;;;22.10;44.30;;;;;;5127896;27;19935;-45
2022/05/27 00:52:54;;;;;;;;;;;22.20;44.30;;;;;;5140912;27;20038;-45
2022/05/27 00:55:21;;;;;;;;;;;22.10;44.30;;;;;;5142277;27;19988;-49
2022/05/27 00:57:48;;;;;;;;;;;22.20;44.10;;;;;;5147258;27;19975;-45
2022/05/27 01:00:16;;;;;;;;;;;22.20;43.80;;;;;;5123500;27;19923;-48
2022/05/27 01:02:42;;;;;;;;;;;22.30;43.60;;;;;;5147144;27;19923;-59
2022/05/27 01:05:08;;;;;;;;;;;22.30;43.50;;;;;;5120604;27;20006;-57
2022/05/27 01:07:34;;;;;;;;;;;22.10;43.80;;;;;;5140690;27;20442;-59
2022/05/27 01:10:00;;;;;;;;;;;22.10;44.00;;;;;;5128494;27;19923;-59
2022/05/27 01:12:45;;;;;;;;;;;22.00;44.30;;;;;;5142065;27;19927;-59
2022/05/27 01:15:14;;;;;;;;;;;21.80;45.00;;;;;;5142217;27;19946;-58
2022/05/27 01:17:58;;;;;;;;;;;21.80;45.30;;;;;;5147268;27;20346;-59
2022/05/27 01:20:34;;;;;;;;;;;21.80;45.10;;;;;;5142227;27;20006;-56
2022/05/27 01:23:18;;;;;;;;;;;21.80;44.90;;;;;;5122848;27;19927;-57
2022/05/27 01:25:50;;;;;;;;;;;22.00;44.60;;;;;;5145932;27;19927;-57
2022/05/27 01:28:19;;;;;;;;;;;21.90;44.60;;;;;;5142194;27;20301;-57
2022/05/27 01:30:45;;;;;;;;;;;21.90;44.50;;;;;;5106805;27;19923;-54
2022/05/27 01:33:15;;;;;;;;;;;21.90;44.90;;;;;;5147205;27;19931;-56
2022/05/27 01:35:45;;;;;;;;;;;21.80;45.10;;;;;;5142986;27;19930;-54
2022/05/27 01:38:27;;;;;;;;;;;21.80;45.30;;;;;;5124148;27;20171;-55
2022/05/27 01:40:56;;;;;;;;;;;21.80;45.30;;;;;;5128363;27;20060;-52
2022/05/27 01:43:41;;;;;;;;;;;21.80;45.10;;;;;;5106040;27;19942;-55
2022/05/27 01:46:15;;;;;;;;;;;21.90;44.90;;;;;;5122503;27;19927;-54
2022/05/27 01:48:46;;;;;;;;;;;21.90;44.80;;;;;;5128463;27;20014;-52
2022/05/27 01:51:12;;;;;;;;;;;21.90;44.70;;;;;;5142784;27;19938;-49
2022/05/27 01:53:38;;;;;;;;;;;21.90;44.70;;;;;;5143055;27;19930;-51
2022/05/27 01:56:06;;;;;;;;;;;22.00;44.70;;;;;;5146700;27;19923;-55
2022/05/27 01:58:33;;;;;;;;;;;21.80;45.10;;;;;;5142770;27;20018;-54
2022/05/27 02:00:59;;;;;;;;;;;21.80;45.20;;;;;;5124147;27;19927;-55
2022/05/27 02:03:30;;;;;;;;;;;21.70;45.40;;;;;;5147179;27;19927;-52
2022/05/27 02:05:57;;;;;;;;;;;21.80;45.00;;;;;;5128171;27;19972;-53
2022/05/27 02:08:24;;;;;;;;;;;21.80;45.10;;;;;;5132147;27;19927;-52
2022/05/27 02:11:04;;;;;;;;;;;21.80;44.80;;;;;;5146583;27;20030;-54
2022/05/27 02:13:59;;;;;;;;;;;21.40;44.70;;;;;;5128225;27;19923;-51
2022/05/27 02:16:32;;;;;;;;;;;20.90;44.50;;;;;;5126638;27;19970;-53
2022/05/27 02:19:00;;;;;;;;;;;21.10;45.10;;;;;;5148806;27;19933;-53
2022/05/27 02:21:28;;;;;;;;;;;21.40;45.90;;;;;;5145260;27;19930;-53
2022/05/27 02:23:59;;;;;;;;;;;21.60;45.70;;;;;;5129647;27;20397;-52
2022/05/27 02:26:27;;;;;;;;;;;21.50;46.10;;;;;;5146165;27;20289;-53
2022/05/27 02:28:56;;;;;;;;;;;21.50;46.30;;;;;;5128001;27;19942;-50
2022/05/27 02:31:29;;;;;;;;;;;21.50;46.40;;;;;;5131869;27;19963;-51
2022/05/27 02:36:44;;;;;;;;;;;21.60;45.90;;;;;;5145109;27;19923;-51
2022/05/27 02:39:10;;;;;;;;;;;21.60;45.80;;;;;;5130283;27;19974;-52
2022/05/27 02:41:39;;;;;;;;;;;21.70;45.50;;;;;;5145615;27;20367;-54
2022/05/27 02:44:05;;;;;;;;;;;21.70;45.30;;;;;;5145829;27;19941;-53
2022/05/27 02:46:50;;;;;;;;;;;21.80;45.30;;;;;;5149802;27;19935;-52
2022/05/27 02:49:17;;;;;;;;;;;21.70;45.40;;;;;;5145858;27;20361;-51
2022/05/27 02:52:02;;;;;;;;;;;21.60;45.70;;;;;;5146074;27;20236;-50
2022/05/27 02:54:32;;;;;;;;;;;21.60;45.70;;;;;;5149220;27;19927;-50
2022/05/27 02:57:00;;;;;;;;;;;21.70;45.60;;;;;;5144389;27;19944;-54
2022/05/27 02:59:25;;;;;;;;;;;21.70;45.40;;;;;;5127009;27;20415;-51
2022/05/27 03:01:51;;;;;;;;;;;21.80;45.10;;;;;;5149798;27;19923;-52
2022/05/27 03:04:17;;;;;;;;;;;21.80;44.90;;;;;;5145668;27;20362;-49
2022/05/27 03:07:03;;;;;;;;;;;21.80;44.90;;;;;;5148708;27;19923;-55
2022/05/27 03:09:48;;;;;;;;;;;21.80;45.00;;;;;;5149510;27;19978;-51
2022/05/27 03:12:25;;;;;;;;;;;21.70;45.30;;;;;;5145273;27;19923;-51
2022/05/27 03:15:01;;;;;;;;;;;21.70;45.60;;;;;;5124606;27;20088;-51
2022/05/27 03:17:32;;;;;;;;;;;21.70;45.70;;;;;;5128457;27;19924;-50
2022/05/27 03:20:17;;;;;;;;;;;21.80;45.50;;;;;;5109783;27;20450;-51
2022/05/27 03:22:47;;;;;;;;;;;21.80;45.30;;;;;;5144979;27;19958;-51
2022/05/27 03:25:29;;;;;;;;;;;21.80;45.10;;;;;;5149456;27;20370;-51
2022/05/27 03:27:59;;;;;;;;;;;21.90;44.80;;;;;;5145020;27;19923;-48
2022/05/27 03:30:33;;;;;;;;;;;21.90;44.70;;;;;;5126235;27;20250;-49
2022/05/27 03:33:09;;;;;;;;;;;22.00;44.80;;;;;;5147487;27;19927;-49
2022/05/27 03:35:43;;;;;;;;;;;21.90;44.90;;;;;;5107785;27;19970;-46
2022/05/27 03:38:13;;;;;;;;;;;21.80;45.20;;;;;;5144563;27;20034;-49
2022/05/27 03:40:39;;;;;;;;;;;21.80;45.20;;;;;;5130594;27;20054;-46
2022/05/27 03:43:05;;;;;;;;;;;21.80;45.30;;;;;;5144997;27;19923;-46
2022/05/27 03:45:30;;;;;;;;;;;21.80;45.20;;;;;;5146540;27;19924;-53
2022/05/27 03:47:56;;;;;;;;;;;21.90;44.90;;;;;;5147564;27;19975;-45
2022/05/27 03:50:23;;;;;;;;;;;21.90;44.70;;;;;;5143892;27;19923;-46
2022/05/27 03:52:49;;;;;;;;;;;22.00;44.50;;;;;;5148302;27;20350;-46
2022/05/27 03:55:16;;;;;;;;;;;22.00;44.30;;;;;;5145010;27;19923;-46
2022/05/27 03:57:42;;;;;;;;;;;22.00;44.40;;;;;;5145029;27;20010;-47
2022/05/27 04:00:08;;;;;;;;;;;22.00;44.70;;;;;;5149109;27;19930;-46
2022/05/27 04:02:33;;;;;;;;;;;21.90;44.90;;;;;;5126901;27;19923;-46
2022/05/27 04:04:59;;;;;;;;;;;21.90;44.90;;;;;;5144973;27;19976;-46
2022/05/27 04:07:25;;;;;;;;;;;21.80;44.90;;;;;;5113191;27;20354;-47
2022/05/27 04:09:51;;;;;;;;;;;22.00;44.60;;;;;;5143745;27;19927;-46
2022/05/27 04:12:17;;;;;;;;;;;22.00;44.50;;;;;;5148423;27;19933;-46
2022/05/27 04:14:42;;;;;;;;;;;22.10;44.20;;;;;;5126209;27;19931;-46
2022/05/27 04:19:53;;;;;;;;;;;21.50;44.70;;;;;;5133250;27;19979;-47
2022/05/27 04:22:19;;;;;;;;;;;21.10;44.10;;;;;;5144877;27;19991;-45
2022/05/27 04:24:45;;;;;;;;;;;21.00;44.30;;;;;;5145021;27;20426;-45
2022/05/27 04:27:12;;;;;;;;;;;21.40;45.80;;;;;;5146003;27;19923;-48
2022/05/27 04:29:41;;;;;;;;;;;21.50;46.20;;;;;;5144195;27;20370;-48
2022/05/27 04:32:07;;;;;;;;;;;21.50;46.10;;;;;;5124816;27;19931;-45
2022/05/27 04:34:33;;;;;;;;;;;21.70;45.90;;;;;;5130113;27;20014;-45
2022/05/27 04:36:59;;;;;;;;;;;21.80;45.70;;;;;;5144958;27;20018;-45
2022/05/27 04:39:25;;;;;;;;;;;21.90;45.20;;;;;;5148513;27;20389;-46
2022/05/27 04:41:51;;;;;;;;;;;21.90;44.90;;;;;;5126599;27;19927;-45
2022/05/27 04:44:17;;;;;;;;;;;21.90;44.80;;;;;;5144874;27;20017;-48
2022/05/27 04:46:45;;;;;;;;;;;21.90;44.90;;;;;;5146725;27;20046;-45
2022/05/27 04:49:50;;;;;;;;;;;21.90;45.10;;;;;;5144167;27;19981;-48
2022/05/27 04:51:57;;;;;;;;;;;21.80;45.30;;;;;;5129361;27;19923;-45
2022/05/27 04:54:23;;;;;;;;;;;21.80;45.80;;;;;;5148175;27;19923;-45
2022/05/27 04:56:49;;;;;;;;;;;21.80;46.10;;;;;;5144567;27;19937;-46
2022/05/27 04:59:15;;;;;;;;;;;21.80;46.00;;;;;;5125647;27;19935;-45
2022/05/27 05:01:40;;;;;;;;;;;21.80;45.70;;;;;;5127912;27;19923;-46
2022/05/27 05:04:06;;;;;;;;;;;21.80;45.50;;;;;;5143806;27;20364;-46
2022/05/27 05:06:32;;;;;;;;;;;22.00;45.10;;;;;;5147408;27;19935;-47
2022/05/27 05:08:58;;;;;;;;;;;22.00;44.90;;;;;;5144840;27;19972;-46
2022/05/27 05:11:24;;;;;;;;;;;22.00;44.90;;;;;;5144915;27;20017;-45
2022/05/27 05:13:49;;;;;;;;;;;22.00;45.10;;;;;;5129575;27;19979;-46
2022/05/27 05:16:17;;;;;;;;;;;22.00;45.20;;;;;;5126378;27;19934;-46
2022/05/27 05:18:43;;;;;;;;;;;21.90;45.60;;;;;;5144649;27;20523;-48
2022/05/27 05:21:09;;;;;;;;;;;21.90;45.80;;;;;;5112065;27;20005;-47
2022/05/27 05:23:34;;;;;;;;;;;21.90;45.70;;;;;;5141056;27;19977;-51
2022/05/27 05:26:00;;;;;;;;;;;22.00;45.50;;;;;;5146501;27;20043;-52
2022/05/27 05:28:26;;;;;;;;;;;22.00;45.40;;;;;;5142269;27;20267;-50
2022/05/27 05:30:52;;;;;;;;;;;22.10;45.10;;;;;;5141875;27;19923;-54
2022/05/27 05:33:18;;;;;;;;;;;22.10;45.10;;;;;;5128583;27;19933;-49
2022/05/27 05:35:46;;;;;;;;;;;22.00;45.20;;;;;;5141647;27;20059;-49
2022/05/27 05:38:12;;;;;;;;;;;22.00;45.40;;;;;;5140629;27;19933;-51
2022/05/27 05:40:38;;;;;;;;;;;22.00;45.70;;;;;;5145285;27;20441;-51
2022/05/27 05:43:04;;;;;;;;;;;22.00;45.80;;;;;;5139916;27;20294;-50
2022/05/27 05:45:30;;;;;;;;;;;22.00;45.70;;;;;;5142880;27;19930;-57
2022/05/27 05:47:56;;;;;;;;;;;22.10;45.60;;;;;;5144419;27;19930;-49
2022/05/27 05:50:21;;;;;;;;;;;22.20;45.30;;;;;;5141209;27;19931;-50
2022/05/27 05:52:47;;;;;;;;;;;22.10;45.40;;;;;;5128269;27;19923;-47
2022/05/27 05:55:13;;;;;;;;;;;22.10;45.60;;;;;;5141312;27;19927;-47
2022/05/27 05:57:41;;;;;;;;;;;22.00;45.90;;;;;;5140651;27;19923;-47
2022/05/27 06:00:07;;;;;;;;;;;22.00;45.90;;;;;;5144151;27;19927;-46
2022/05/27 06:02:33;;;;;;;;;;;22.10;45.80;;;;;;5140129;27;19933;-52
2022/05/27 06:04:59;;;;;;;;;;;22.20;45.50;;;;;;5140365;27;20367;-49
2022/05/27 06:07:25;;;;;;;;;;;22.10;45.30;;;;;;5146405;27;20295;-48
2022/05/27 06:09:50;;;;;;;;;;;22.20;45.30;;;;;;5140753;27;19935;-49
2022/05/27 06:12:22;;;;;;;;;;;22.20;45.10;;;;;;5126181;27;19974;-49
2022/05/27 06:14:47;;;;;;;;;;;22.10;45.30;;;;;;5140469;27;19945;-48
2022/05/27 06:17:13;;;;;;;;;;;22.00;45.60;;;;;;5139168;27;20010;-51
2022/05/27 06:19:39;;;;;;;;;;;22.10;45.90;;;;;;5144473;27;19965;-49
2022/05/27 06:22:05;;;;;;;;;;;22.00;46.00;;;;;;5121539;27;19969;-49
2022/05/27 06:24:31;;;;;;;;;;;22.10;45.70;;;;;;5140694;27;19931;-47
2022/05/27 06:26:57;;;;;;;;;;;21.50;45.30;;;;;;5146145;27;19986;-48
2022/05/27 06:34:51;;;;;;;;;;;21.90;46.10;;;;;;5145260;27;19945;-48
2022/05/27 06:37:18;;;;;;;;;;;21.90;46.30;;;;;;5138454;27;19927;-48
2022/05/27 06:39:44;;;;;;;;;;;21.90;46.70;;;;;;5140933;27;19941;-55
2022/05/27 06:42:10;;;;;;;;;;;21.80;46.90;;;;;;5144922;27;19923;-50
2022/05/27 06:44:36;;;;;;;;;;;22.00;46.80;;;;;;5140343;27;20030;-48
2022/05/27 06:47:03;;;;;;;;;;;21.90;46.80;;;;;;5145842;27;19935;-47
2022/05/27 06:49:29;;;;;;;;;;;22.10;46.40;;;;;;5122350;27;19950;-48
2022/05/27 06:51:55;;;;;;;;;;;22.10;46.20;;;;;;5143460;27;19973;-48
2022/05/27 06:54:21;;;;;;;;;;;22.20;45.90;;;;;;5147677;27;20362;-49
2022/05/27 06:56:50;;;;;;;;;;;22.20;45.90;;;;;;5142250;27;19923;-49
2022/05/27 06:59:16;;;;;;;;;;;22.20;45.90;;;;;;5143092;27;20009;-50
2022/05/27 07:01:42;;;;;;;;;;;22.20;45.80;;;;;;5149077;27;20017;-46
2022/05/27 07:04:08;;;;;;;;;;;22.20;45.80;;;;;;5143710;27;20341;-49
2022/05/27 07:06:37;;;;;;;;;;;22.20;46.00;;;;;;5149350;27;19930;-46
2022/05/27 07:09:05;;;;;;;;;;;22.00;46.50;;;;;;5143296;27;20445;-46
2022/05/27 07:11:30;;;;;;;;;;;22.00;46.80;;;;;;5142960;27;19923;-49
2022/05/27 07:13:56;;;;;;;;;;;22.10;46.70;;;;;;5146891;27;20370;-46
2022/05/27 07:16:22;;;;;;;;;;;22.20;46.40;;;;;;5142860;27;19974;-45
2022/05/27 07:18:48;;;;;;;;;;;22.20;46.00;;;;;;5143259;27;20265;-47
2022/05/27 07:21:13;;;;;;;;;;;22.10;46.10;;;;;;5148964;27;19988;-48
2022/05/27 07:23:39;;;;;;;;;;;22.20;45.80;;;;;;5143610;27;19937;-48
2022/05/27 07:26:05;;;;;;;;;;;22.10;46.00;;;;;;5147245;27;19923;-57
2022/05/27 07:28:31;;;;;;;;;;;22.20;45.70;;;;;;5145349;27;19931;-49
2022/05/27 07:31:01;;;;;;;;;;;22.10;45.90;;;;;;5141442;27;19948;-48
2022/05/27 07:33:27;;;;;;;;;;;22.10;46.20;;;;;;5147152;27;19975;-48
2022/05/27 07:35:53;;;;;;;;;;;22.00;46.60;;;;;;5142688;27;20483;-51
2022/05/27 07:38:19;;;;;;;;;;;22.10;46.40;;;;;;5143115;27;19927;-48
2022/05/27 07:40:44;;;;;;;;;;;22.10;46.10;;;;;;5148618;27;20388;-46
2022/05/27 07:43:10;;;;;;;;;;;22.10;46.00;;;;;;5143113;27;19927;-47
2022/05/27 07:45:37;;;;;;;;;;;22.20;45.80;;;;;;5142902;27;20018;-47
2022/05/27 07:48:03;;;;;;;;;;;22.10;46.00;;;;;;5148062;27;20084;-49
2022/05/27 07:50:29;;;;;;;;;;;22.10;45.70;;;;;;5140845;27;20017;-45
2022/05/27 07:52:55;;;;;;;;;;;22.00;46.10;;;;;;5147971;27;19968;-46
2022/05/27 07:55:21;;;;;;;;;;;22.10;46.00;;;;;;5142582;27;19923;-48
2022/05/27 07:57:47;;;;;;;;;;;22.00;46.50;;;;;;5124398;27;20395;-47
2022/05/27 08:00:14;;;;;;;;;;;22.10;46.30;;;;;;5148073;27;19978;-48
2022/05/27 08:02:39;;;;;;;;;;;22.20;46.00;;;;;;5124524;27;19923;-45
2022/05/27 08:05:07;;;;;;;;;;;22.10;46.20;;;;;;5142607;27;19927;-47
2022/05/27 08:07:33;;;;;;;;;;;22.20;45.80;;;;;;5146729;27;19923;-46
2022/05/27 08:09:59;;;;;;;;;;;22.20;45.90;;;;;;5141576;27;19971;-45
2022/05/27 08:12:24;;;;;;;;;;;22.10;46.00;;;;;;5147398;27;19935;-47
2022/05/27 08:14:50;;;;;;;;;;;22.20;45.80;;;;;;5142531;27;19936;-45
2022/05/27 08:17:16;;;;;;;;;;;22.20;45.80;;;;;;5142477;27;19923;-45
2022/05/27 08:19:42;;;;;;;;;;;22.10;46.40;;;;;;5148102;27;20333;-49
2022/05/27 08:22:07;;;;;;;;;;;22.00;46.70;;;;;;5123167;27;19934;-46
2022/05/27 08:24:33;;;;;;;;;;;22.10;46.60;;;;;;5142010;27;19931;-46
2022/05/27 08:26:59;;;;;;;;;;;22.20;46.50;;;;;;5145463;27;20320;-48
2022/05/27 08:29:25;;;;;;;;;;;22.30;46.20;;;;;;5141481;27;19930;-45
2022/05/27 08:31:51;;;;;;;;;;;21.90;45.50;;;;;;5146977;27;19949;-51
2022/05/27 08:39:46;;;;;;;;;;;21.90;46.00;;;;;;5139646;27;19975;-53
2022/05/27 08:42:30;;;;;;;;;;;22.10;45.90;;;;;;5147103;27;19923;-45
2022/05/27 08:45:13;;;;;;;;;;;22.10;46.10;;;;;;5139964;27;19999;-45
2022/05/27 08:47:43;;;;;;;;;;;22.00;46.60;;;;;;5122753;27;20177;-46
2022/05/27 08:50:21;;;;;;;;;;;22.10;46.70;;;;;;5147396;27;19931;-48
2022/05/27 08:52:48;;;;;;;;;;;22.00;46.80;;;;;;5142133;27;19923;-48
2022/05/27 09:00:51;;;;;;;;;;;22.10;46.40;;;;;;5141688;27;19927;-47
2022/05/27 09:03:17;;;;;;;;;;;22.10;46.30;;;;;;5139944;27;19923;-49
2022/05/27 09:05:43;;;;;;;;;;;22.10;46.30;;;;;;5127618;27;19933;-53
2022/05/27 09:08:16;;;;;;;;;;;22.20;46.10;;;;;;5122797;27;19927;-47
2022/05/27 09:10:52;;;;;;;;;;;22.20;46.20;;;;;;5124456;27;19930;-50
2022/05/27 09:13:21;;;;;;;;;;;22.20;46.40;;;;;;5146301;27;20018;-45
2022/05/27 09:15:51;;;;;;;;;;;22.00;46.90;;;;;;5141632;27;19975;-44
2022/05/27 09:18:27;;;;;;;;;;;22.10;46.70;;;;;;5128422;27;20001;-46
2022/05/27 09:21:05;;;;;;;;;;;22.20;46.50;;;;;;5144958;27;20376;-50
2022/05/27 09:23:34;;;;;;;;;;;22.10;46.40;;;;;;5104279;27;19928;-47
2022/05/27 09:26:19;;;;;;;;;;;22.20;46.10;;;;;;5146304;27;19995;-48
2022/05/27 09:29:03;;;;;;;;;;;22.20;46.00;;;;;;5128483;27;19937;-47
2022/05/27 09:31:30;;;;;;;;;;;20.90;47.80;;;;;;5142654;27;19924;-47
2022/05/27 09:33:56;;;;;;;;;;;19.80;50.90;;;;;;5124383;27;19929;-54
2022/05/27 09:36:25;;;;;;;;;;;20.90;49.70;;;;;;5145741;27;20333;-45
2022/05/27 09:38:58;;;;;;;;;;;21.60;47.90;;;;;;5121877;27;20389;-44
2022/05/27 09:41:26;;;;;;;;;;;21.80;46.90;;;;;;5145182;27;20400;-45
2022/05/27 09:44:16;;;;;;;;;;;21.90;46.70;;;;;;5122477;27;19927;-43
2022/05/27 09:46:42;;;;;;;;;;;22.00;46.40;;;;;;5141523;27;19927;-44
2022/05/27 09:49:07;;;;;;;;;;;22.10;46.20;;;;;;5146809;27;19930;-46
2022/05/27 09:51:33;;;;;;;;;;;22.20;45.80;;;;;;5141890;27;20298;-45
2022/05/27 09:54:19;;;;;;;;;;;22.00;45.80;;;;;;5142104;27;20284;-45
2022/05/27 09:56:55;;;;;;;;;;;20.40;48.60;;;;;;5146304;27;19975;-45
2022/05/27 09:59:23;;;;;;;;;;;19.90;50.50;;;;;;5140066;27;20438;-48
2022/05/27 10:01:48;;;;;;;;;;;21.20;47.80;;;;;;5121848;27;20378;-45
2022/05/27 10:04:15;;;;;;;;;;;21.80;46.30;;;;;;5145932;27;20273;-45
2022/05/27 10:06:40;;;;;;;;;;;21.90;45.80;;;;;;5140857;27;20414;-45
2022/05/27 10:09:11;;;;;;;;;;;22.00;45.50;;;;;;5141072;27;20181;-47
2022/05/27 10:11:46;;;;;;;;;;;22.00;45.70;;;;;;5146564;27;20010;-46
2022/05/27 10:14:18;;;;;;;;;;;22.00;45.70;;;;;;5140735;27;19950;-47
2022/05/27 10:16:59;;;;;;;;;;;22.10;45.50;;;;;;5138981;27;19953;-48
2022/05/27 10:19:25;;;;;;;;;;;22.20;45.00;;;;;;5145261;27;20293;-48
2022/05/27 10:21:57;;;;;;;;;;;22.20;44.80;;;;;;5140828;27;19927;-47
2022/05/27 10:24:24;;;;;;;;;;;21.00;46.20;;;;;;5144247;27;19923;-48
2022/05/27 10:27:00;;;;;;;;;;;19.90;48.60;;;;;;5149908;27;19923;-46
2022/05/27 10:29:26;;;;;;;;;;;20.80;47.50;;;;;;5147050;27;20404;-46
2022/05/27 10:31:53;;;;;;;;;;;21.70;45.30;;;;;;5131095;27;19923;-53
2022/05/27 10:34:41;;;;;;;;;;;21.90;44.40;;;;;;5147599;27;19931;-45
2022/05/27 10:37:07;;;;;;;;;;;21.90;44.20;;;;;;5132171;27;20355;-46
2022/05/27 10:39:43;;;;;;;;;;;21.40;43.70;;;;;;5150040;27;19966;-46
2022/05/27 10:42:19;;;;;;;;;;;21.30;43.10;;;;;;5149155;27;19923;-46
2022/05/27 10:44:45;;;;;;;;;;;21.50;44.60;;;;;;5145638;27;20301;-45
2022/05/27 10:47:14;;;;;;;;;;;21.80;45.60;;;;;;5149977;27;20389;-45
2022/05/27 10:50:00;;;;;;;;;;;22.00;44.90;;;;;;5145976;27;20328;-45
2022/05/27 10:52:41;;;;;;;;;;;22.10;44.50;;;;;;5145255;27;20408;-48
2022/05/27 10:55:15;;;;;;;;;;;22.10;44.30;;;;;;5129795;27;19923;-55
2022/05/27 11:03:35;;;;;;;;;;;22.20;43.70;;;;;;5147197;27;20338;-45
2022/05/27 11:06:00;;;;;;;;;;;22.20;43.60;;;;;;5150204;27;19936;-46
2022/05/27 11:08:27;;;;;;;;;;;22.20;43.50;;;;;;5146524;27;19930;-48
2022/05/27 11:11:08;;;;;;;;;;;22.20;43.50;;;;;;5146136;27;19923;-47
2022/05/27 11:16:44;;;;;;;;;;;22.20;43.40;;;;;;5144635;27;19974;-54
2022/05/27 11:19:18;;;;;;;;;;;21.50;44.00;;;;;;5144558;27;19923;-45
2022/05/27 11:21:49;;;;;;;;;;;19.90;47.30;;;;;;5128661;27;20006;-45
2022/05/27 11:24:24;;;;;;;;;;;20.30;47.40;;;;;;5124301;27;19928;-44
2022/05/27 11:27:02;;;;;;;;;;;21.20;45.20;;;;;;5126778;27;20410;-44
2022/05/27 11:29:50;;;;;;;;;;;21.70;44.10;;;;;;5147971;27;19928;-49
2022/05/27 11:32:35;;;;;;;;;;;22.10;43.30;;;;;;5143603;27;19923;-45
2022/05/27 11:35:01;;;;;;;;;;;22.10;43.10;;;;;;5143332;27;19980;-45
2022/05/27 11:37:27;;;;;;;;;;;22.10;43.20;;;;;;5148946;27;19927;-45
2022/05/27 11:40:22;;;;;;;;;;;22.10;43.20;;;;;;5144156;27;20397;-45
2022/05/27 11:43:04;;;;;;;;;;;22.10;43.40;;;;;;5122773;27;20370;-45
2022/05/27 11:45:30;;;;;;;;;;;22.20;43.40;;;;;;5146257;27;20071;-51
2022/05/27 11:48:06;;;;;;;;;;;22.10;43.30;;;;;;5127310;27;19982;-49
2022/05/27 11:50:55;;;;;;;;;;;21.80;43.40;;;;;;5122298;27;19930;-47
2022/05/27 11:53:40;;;;;;;;;;;20.00;46.80;;;;;;5129526;27;20067;-48
2022/05/27 11:56:16;;;;;;;;;;;20.60;46.40;;;;;;5130389;27;20006;-47
2022/05/27 11:58:45;;;;;;;;;;;21.50;44.20;;;;;;5125229;27;20416;-49
2022/05/27 12:01:17;;;;;;;;;;;21.90;43.30;;;;;;5144334;27;21317;-47
2022/05/27 12:03:54;;;;;;;;;;;22.00;43.10;;;;;;5130066;27;19930;-46
2022/05/27 12:06:31;;;;;;;;;;;22.00;43.40;;;;;;5124391;27;19923;-47
2022/05/27 12:09:06;;;;;;;;;;;22.00;43.50;;;;;;5124854;27;20061;-47
2022/05/27 12:11:39;;;;;;;;;;;22.00;43.50;;;;;;5129661;27;19990;-47
2022/05/27 12:14:07;;;;;;;;;;;22.30;43.20;;;;;;5144440;27;19923;-47
2022/05/27 12:16:37;;;;;;;;;;;22.30;43.20;;;;;;5126121;27;19923;-56
2022/05/27 12:19:03;;;;;;;;;;;22.20;43.40;;;;;;5130227;27;20631;-46
2022/05/27 12:21:32;;;;;;;;;;;22.30;43.30;;;;;;5143561;27;19931;-48
2022/05/27 12:24:03;;;;;;;;;;;22.00;43.60;;;;;;5128569;27;19924;-49
2022/05/27 12:26:30;;;;;;;;;;;20.10;47.60;;;;;;5123191;27;19952;-46
2022/05/27 12:28:56;;;;;;;;;;;21.00;46.40;;;;;;5128542;27;19923;-45
2022/05/27 12:31:23;;;;;;;;;;;21.80;44.80;;;;;;5131065;27;20370;-45
2022/05/27 12:33:49;;;;;;;;;;;22.00;44.00;;;;;;5149056;27;20427;-45
2022/05/27 12:36:22;;;;;;;;;;;22.10;43.80;;;;;;5129238;27;20339;-48
2022/05/27 12:38:48;;;;;;;;;;;22.20;43.80;;;;;;5129651;27;19934;-47
2022/05/27 12:41:18;;;;;;;;;;;22.20;43.70;;;;;;5123731;27;20325;-48
2022/05/27 12:43:54;;;;;;;;;;;21.80;44.00;;;;;;5121407;27;20366;-46
2022/05/27 12:46:31;;;;;;;;;;;21.60;43.30;;;;;;5146247;27;20358;-46
2022/05/27 12:49:15;;;;;;;;;;;21.50;42.60;;;;;;5140942;27;19923;-46
2022/05/27 12:51:43;;;;;;;;;;;21.80;44.30;;;;;;5142133;27;20126;-47
2022/05/27 12:54:09;;;;;;;;;;;22.10;44.30;;;;;;5110084;27;19927;-45
2022/05/27 13:02:18;;;;;;;;;;;22.20;44.20;;;;;;5129123;27;20199;-48
2022/05/27 13:04:47;;;;;;;;;;;20.60;47.40;;;;;;5142724;27;20037;-48
2022/05/27 13:07:13;;;;;;;;;;;20.00;48.50;;;;;;5122939;27;19923;-47
2022/05/27 13:09:42;;;;;;;;;;;20.80;47.80;;;;;;5147390;27;19927;-46
2022/05/27 13:12:10;;;;;;;;;;;21.70;45.40;;;;;;5141688;27;20326;-46
2022/05/27 13:14:40;;;;;;;;;;;22.00;44.60;;;;;;5142073;27;20022;-56
2022/05/27 13:17:24;;;;;;;;;;;22.10;44.40;;;;;;5146537;27;19936;-47
2022/05/27 13:19:59;;;;;;;;;;;22.10;44.60;;;;;;5139890;27;19931;-46
2022/05/27 13:22:35;;;;;;;;;;;22.20;44.60;;;;;;5140256;27;19923;-47
2022/05/27 13:25:20;;;;;;;;;;;22.10;44.70;;;;;;5146321;27;20346;-45
2022/05/27 13:27:46;;;;;;;;;;;22.20;44.40;;;;;;5141254;27;19927;-46
2022/05/27 13:30:13;;;;;;;;;;;22.20;44.40;;;;;;5141142;27;19930;-46
2022/05/27 13:33:11;;;;;;;;;;;22.30;44.20;;;;;;5128479;27;20009;-46
2022/05/27 13:35:37;;;;;;;;;;;22.30;44.20;;;;;;5087372;27;19989;-44
2022/05/27 13:38:03;;;;;;;;;;;22.20;44.30;;;;;;5124197;27;19930;-48
2022/05/27 13:40:30;;;;;;;;;;;22.20;44.30;;;;;;5146651;27;19984;-45
2022/05/27 13:42:57;;;;;;;;;;;22.30;44.30;;;;;;5144103;27;20022;-44
2022/05/27 13:45:42;;;;;;;;;;;22.30;44.20;;;;;;5128359;27;19954;-53
2022/05/27 13:48:17;;;;;;;;;;;22.10;44.50;;;;;;5146877;27;19938;-50
2022/05/27 13:50:43;;;;;;;;;;;20.30;48.10;;;;;;5121262;27;20004;-47
2022/05/27 13:53:19;;;;;;;;;;;19.60;49.40;;;;;;5146315;27;19947;-53
2022/05/27 13:55:47;;;;;;;;;;;20.60;48.90;;;;;;5147603;27;20430;-46
2022/05/27 13:58:13;;;;;;;;;;;21.50;46.50;;;;;;5126825;27;20379;-46
2022/05/27 14:00:40;;;;;;;;;;;21.80;45.90;;;;;;5133505;27;19929;-47
2022/05/27 14:03:06;;;;;;;;;;;21.90;45.50;;;;;;5114963;27;20366;-48
2022/05/27 14:05:31;;;;;;;;;;;22.00;45.40;;;;;;5149952;27;19927;-47
2022/05/27 14:07:58;;;;;;;;;;;22.10;45.00;;;;;;5151948;27;19931;-47
2022/05/27 14:10:24;;;;;;;;;;;22.30;44.70;;;;;;5149953;27;19954;-49
2022/05/27 14:12:50;;;;;;;;;;;22.30;44.70;;;;;;5149799;27;19931;-47
2022/05/27 14:15:24;;;;;;;;;;;22.30;44.60;;;;;;5132555;27;19930;-48
2022/05/27 14:17:50;;;;;;;;;;;22.30;44.80;;;;;;5148939;27;19967;-49
2022/05/27 14:20:27;;;;;;;;;;;22.30;44.90;;;;;;5150675;27;19946;-52
2022/05/27 14:22:54;;;;;;;;;;;22.30;44.80;;;;;;5150942;27;20018;-49
2022/05/27 14:25:33;;;;;;;;;;;22.20;44.90;;;;;;5125898;27;19981;-49
2022/05/27 14:28:19;;;;;;;;;;;20.50;48.50;;;;;;5149440;27;19923;-57
2022/05/27 14:30:49;;;;;;;;;;;19.90;49.60;;;;;;5149171;27;20431;-48
2022/05/27 14:33:23;;;;;;;;;;;20.60;50.00;;;;;;5124499;27;19969;-52
2022/05/27 14:35:48;;;;;;;;;;;21.50;47.50;;;;;;5145480;27;19927;-58
2022/05/27 14:38:15;;;;;;;;;;;21.80;46.60;;;;;;5128201;27;19923;-48
2022/05/27 14:40:44;;;;;;;;;;;21.90;46.30;;;;;;5125617;27;19927;-49
2022/05/27 14:43:19;;;;;;;;;;;22.00;46.10;;;;;;5131100;27;20446;-50
2022/05/27 14:45:48;;;;;;;;;;;22.10;46.00;;;;;;5144456;27;20018;-48
2022/05/27 14:48:24;;;;;;;;;;;22.10;45.80;;;;;;5143966;27;19930;-48
2022/05/27 14:50:50;;;;;;;;;;;21.70;45.60;;;;;;5149087;27;20344;-48
2022/05/27 14:53:16;;;;;;;;;;;21.50;44.70;;;;;;5142032;27;19970;-51
2022/05/27 14:55:42;;;;;;;;;;;21.50;44.20;;;;;;5143387;27;19927;-48
2022/05/27 14:58:08;;;;;;;;;;;21.80;45.90;;;;;;5149020;27;20009;-48
2022/05/27 15:00:44;;;;;;;;;;;21.90;46.40;;;;;;5143895;27;19930;-48
2022/05/27 15:03:29;;;;;;;;;;;22.10;46.20;;;;;;5125415;27;19999;-48
2022/05/27 15:06:10;;;;;;;;;;;22.10;46.00;;;;;;5149186;27;20010;-49
2022/05/27 15:08:36;;;;;;;;;;;22.30;45.80;;;;;;5143716;27;19930;-49